Terminal Aerodrome Forecast
Issued by NWS Billings, MT

Home | Current Version | Previous Version | Graphics & Text | Print | Product List | Glossary On
Versions: 1 2 3 4 5 6 7 8 9 10 11 12 13 14 15 16 17 18 19 20
000
FTUS45 KBYZ 270722 AAA
TAFMLS
TAF AMD
KMLS 270722Z 2707/2806 09009KT P6SM VCTS SCT080CB BKN100
      TEMPO 2707/2708 VRB10G20KT -TSRA BKN060CB
     FM271200 08007KT P6SM VCSH BKN080
     FM272000 07011KT P6SM VCTS SCT070CB BKN100=

USA.gov is the U.S. government's official web portal to all federal, state and local government web resources and services.